sensor_id;sensor_type;location;lat;lon;timestamp;pressure;altitude;pressure_sealevel;temperature;humidity
54194;BME280;40102;50.906;6.972;2023-07-20T00:01:01;100736.78;;;21.92;52.89
54194;BME280;40102;50.906;6.972;2023-07-20T00:03:27;100737.66;;;21.93;53.07
54194;BME280;40102;50.906;6.972;2023-07-20T00:05:52;100732.34;;;21.91;53.11
54194;BME280;40102;50.906;6.972;2023-07-20T00:08:18;100736.94;;;21.91;53.15
54194;BME280;40102;50.906;6.972;2023-07-20T00:10:43;100733.91;;;21.94;53.21
54194;BME280;40102;50.906;6.972;2023-07-20T00:13:10;100735.94;;;21.92;53.33
54194;BME280;40102;50.906;6.972;2023-07-20T00:15:36;100735.94;;;21.92;53.19
54194;BME280;40102;50.906;6.972;2023-07-20T00:18:01;100733.69;;;21.87;53.39
54194;BME280;40102;50.906;6.972;2023-07-20T00:20:27;100731.13;;;21.86;53.26
54194;BME280;40102;50.906;6.972;2023-07-20T00:22:52;100742.34;;;21.83;53.36
54194;BME280;40102;50.906;6.972;2023-07-20T00:25:20;100736.44;;;21.70;53.96
54194;BME280;40102;50.906;6.972;2023-07-20T00:27:45;100722.66;;;21.53;54.30
54194;BME280;40102;50.906;6.972;2023-07-20T00:30:11;100746.63;;;21.50;54.75
54194;BME280;40102;50.906;6.972;2023-07-20T00:32:37;100736.97;;;21.38;55.34
54194;BME280;40102;50.906;6.972;2023-07-20T00:35:03;100742.34;;;21.29;55.89
54194;BME280;40102;50.906;6.972;2023-07-20T00:37:28;100740.06;;;21.25;56.05
54194;BME280;40102;50.906;6.972;2023-07-20T00:39:54;100739.41;;;21.13;56.76
54194;BME280;40102;50.906;6.972;2023-07-20T00:42:19;100733.41;;;21.10;57.64
54194;BME280;40102;50.906;6.972;2023-07-20T00:44:45;100733.63;;;20.98;57.66
54194;BME280;40102;50.906;6.972;2023-07-20T00:47:10;100743.19;;;21.02;57.78
54194;BME280;40102;50.906;6.972;2023-07-20T00:49:37;100738.16;;;21.08;57.58
54194;BME280;40102;50.906;6.972;2023-07-20T00:52:03;100744.53;;;21.16;57.21
54194;BME280;40102;50.906;6.972;2023-07-20T00:54:30;100735.22;;;21.19;57.54
54194;BME280;40102;50.906;6.972;2023-07-20T00:56:56;100731.34;;;21.21;57.76
54194;BME280;40102;50.906;6.972;2023-07-20T00:59:23;100728.06;;;21.18;57.56
54194;BME280;40102;50.906;6.972;2023-07-20T01:01:49;100733.09;;;21.13;58.23
54194;BME280;40102;50.906;6.972;2023-07-20T01:04:14;100725.88;;;21.03;58.44
54194;BME280;40102;50.906;6.972;2023-07-20T01:09:40;100731.22;;;20.95;59.07
54194;BME280;40102;50.906;6.972;2023-07-20T01:12:12;100731.09;;;20.87;59.34
54194;BME280;40102;50.906;6.972;2023-07-20T01:14:38;100733.53;;;20.90;59.25
54194;BME280;40102;50.906;6.972;2023-07-20T01:17:04;100728.38;;;20.87;59.52
54194;BME280;40102;50.906;6.972;2023-07-20T01:19:29;100738.09;;;20.90;59.71
54194;BME280;40102;50.906;6.972;2023-07-20T01:24:52;100743.53;;;20.90;59.82
54194;BME280;40102;50.906;6.972;2023-07-20T01:30:52;100728.63;;;20.94;59.83
54194;BME280;40102;50.906;6.972;2023-07-20T01:33:21;100722.66;;;20.90;60.05
54194;BME280;40102;50.906;6.972;2023-07-20T01:35:56;100725.53;;;20.89;59.93
54194;BME280;40102;50.906;6.972;2023-07-20T01:38:26;100727.47;;;20.79;60.42
54194;BME280;40102;50.906;6.972;2023-07-20T01:40:52;100721.19;;;20.78;60.54
54194;BME280;40102;50.906;6.972;2023-07-20T01:43:18;100721.41;;;20.85;60.24
54194;BME280;40102;50.906;6.972;2023-07-20T01:45:44;100706.88;;;20.76;60.31
54194;BME280;40102;50.906;6.972;2023-07-20T01:48:09;100726.69;;;20.86;60.48
54194;BME280;40102;50.906;6.972;2023-07-20T01:50:35;100723.41;;;20.83;60.62
54194;BME280;40102;50.906;6.972;2023-07-20T01:53:01;100724.75;;;20.79;60.72
54194;BME280;40102;50.906;6.972;2023-07-20T01:55:27;100732.09;;;20.68;61.55
54194;BME280;40102;50.906;6.972;2023-07-20T01:57:52;100723.94;;;20.68;61.78
54194;BME280;40102;50.906;6.972;2023-07-20T02:00:18;100727.81;;;20.66;61.71
54194;BME280;40102;50.906;6.972;2023-07-20T02:02:46;100721.81;;;20.62;61.71
54194;BME280;40102;50.906;6.972;2023-07-20T02:05:12;100724.84;;;20.59;62.23
54194;BME280;40102;50.906;6.972;2023-07-20T02:07:37;100718.84;;;20.56;61.93
54194;BME280;40102;50.906;6.972;2023-07-20T02:10:02;100723.69;;;20.62;62.21
54194;BME280;40102;50.906;6.972;2023-07-20T02:12:28;100729.38;;;20.68;61.54
54194;BME280;40102;50.906;6.972;2023-07-20T02:14:53;100719.66;;;20.66;62.13
54194;BME280;40102;50.906;6.972;2023-07-20T02:17:19;100710.25;;;20.60;62.18
54194;BME280;40102;50.906;6.972;2023-07-20T02:19:44;100719.31;;;20.51;62.69
54194;BME280;40102;50.906;6.972;2023-07-20T02:22:09;100711.91;;;20.44;62.93
54194;BME280;40102;50.906;6.972;2023-07-20T02:24:35;100720.91;;;20.34;63.35
54194;BME280;40102;50.906;6.972;2023-07-20T02:27:00;100718.34;;;20.33;63.68
54194;BME280;40102;50.906;6.972;2023-07-20T02:29:25;100714.75;;;20.32;63.25
54194;BME280;40102;50.906;6.972;2023-07-20T02:31:51;100714.34;;;20.27;63.83
54194;BME280;40102;50.906;6.972;2023-07-20T02:34:16;100711.94;;;20.24;64.07
54194;BME280;40102;50.906;6.972;2023-07-20T02:36:41;100706.53;;;20.15;64.44
54194;BME280;40102;50.906;6.972;2023-07-20T02:39:08;100713.53;;;20.08;64.74
54194;BME280;40102;50.906;6.972;2023-07-20T02:41:33;100715.25;;;20.09;64.88
54194;BME280;40102;50.906;6.972;2023-07-20T02:43:59;100708.97;;;20.08;64.61
54194;BME280;40102;50.906;6.972;2023-07-20T02:46:24;100717.94;;;20.18;63.99
54194;BME280;40102;50.906;6.972;2023-07-20T02:48:49;100710.84;;;20.08;64.75
54194;BME280;40102;50.906;6.972;2023-07-20T02:51:15;100707.69;;;20.12;64.69
54194;BME280;40102;50.906;6.972;2023-07-20T02:53:40;100726.69;;;20.12;64.13
54194;BME280;40102;50.906;6.972;2023-07-20T02:56:06;100724.69;;;20.14;64.13
54194;BME280;40102;50.906;6.972;2023-07-20T02:58:34;100725.13;;;20.10;64.59
54194;BME280;40102;50.906;6.972;2023-07-20T03:01:02;100733.13;;;20.01;64.57
54194;BME280;40102;50.906;6.972;2023-07-20T03:03:27;100723.56;;;19.97;64.86
54194;BME280;40102;50.906;6.972;2023-07-20T03:05:53;100724.44;;;19.98;64.60
54194;BME280;40102;50.906;6.972;2023-07-20T03:08:19;100716.56;;;19.95;64.47
54194;BME280;40102;50.906;6.972;2023-07-20T03:10:45;100725.72;;;19.94;64.33
54194;BME280;40102;50.906;6.972;2023-07-20T03:13:10;100727.13;;;19.98;64.46
54194;BME280;40102;50.906;6.972;2023-07-20T03:15:35;100727.56;;;20.03;64.03
54194;BME280;40102;50.906;6.972;2023-07-20T03:18:01;100730.41;;;20.01;64.04
54194;BME280;40102;50.906;6.972;2023-07-20T03:20:26;100727.84;;;20.00;63.71
54194;BME280;40102;50.906;6.972;2023-07-20T03:22:51;100728.56;;;20.02;63.81
54194;BME280;40102;50.906;6.972;2023-07-20T03:25:17;100728.56;;;20.02;63.61
54194;BME280;40102;50.906;6.972;2023-07-20T03:27:43;100731.72;;;19.97;63.99
54194;BME280;40102;50.906;6.972;2023-07-20T03:30:08;100728.56;;;19.92;64.34
54194;BME280;40102;50.906;6.972;2023-07-20T03:32:35;100717.44;;;19.86;64.25
54194;BME280;40102;50.906;6.972;2023-07-20T03:35:00;100731.72;;;19.97;63.82
54194;BME280;40102;50.906;6.972;2023-07-20T03:37:26;100721.28;;;19.93;63.84
54194;BME280;40102;50.906;6.972;2023-07-20T03:39:51;100732.28;;;20.01;63.51
54194;BME280;40102;50.906;6.972;2023-07-20T03:42:16;100740.44;;;20.01;63.72
54194;BME280;40102;50.906;6.972;2023-07-20T03:44:42;100742.28;;;20.00;63.03
54194;BME280;40102;50.906;6.972;2023-07-20T03:47:07;100731.84;;;20.05;63.41
54194;BME280;40102;50.906;6.972;2023-07-20T03:49:32;100732.13;;;20.02;63.52
54194;BME280;40102;50.906;6.972;2023-07-20T03:51:58;100729.41;;;20.02;63.12
54194;BME280;40102;50.906;6.972;2023-07-20T03:54:23;100732.44;;;19.99;63.04
54194;BME280;40102;50.906;6.972;2023-07-20T03:56:48;100741.56;;;19.98;63.09
54194;BME280;40102;50.906;6.972;2023-07-20T03:59:14;100736.16;;;19.89;63.25
54194;BME280;40102;50.906;6.972;2023-07-20T04:01:39;100746.59;;;19.84;63.88
54194;BME280;40102;50.906;6.972;2023-07-20T04:04:06;100751.72;;;19.87;63.27
54194;BME280;40102;50.906;6.972;2023-07-20T04:06:32;100749.00;;;19.87;63.49
54194;BME280;40102;50.906;6.972;2023-07-20T04:08:58;100749.59;;;19.90;63.22
54194;BME280;40102;50.906;6.972;2023-07-20T04:11:23;100751.44;;;19.90;63.61
54194;BME280;40102;50.906;6.972;2023-07-20T04:13:48;100744.28;;;19.89;63.43
54194;BME280;40102;50.906;6.972;2023-07-20T04:16:14;100755.56;;;19.94;63.05
54194;BME280;40102;50.906;6.972;2023-07-20T04:18:39;100751.56;;;19.98;63.11
54194;BME280;40102;50.906;6.972;2023-07-20T04:21:08;100757.28;;;20.04;62.59
54194;BME280;40102;50.906;6.972;2023-07-20T04:23:34;100758.69;;;20.09;62.39
54194;BME280;40102;50.906;6.972;2023-07-20T04:26:00;100761.56;;;20.07;62.62
54194;BME280;40102;50.906;6.972;2023-07-20T04:28:26;100765.56;;;20.03;62.62
54194;BME280;40102;50.906;6.972;2023-07-20T04:30:52;100767.13;;;20.05;62.52
54194;BME280;40102;50.906;6.972;2023-07-20T04:33:18;100774.13;;;20.08;62.53
54194;BME280;40102;50.906;6.972;2023-07-20T04:35:53;100772.56;;;20.05;62.81
54194;BME280;40102;50.906;6.972;2023-07-20T04:38:20;100767.13;;;20.05;62.52
54194;BME280;40102;50.906;6.972;2023-07-20T04:40:46;100771.72;;;20.05;62.81
54194;BME280;40102;50.906;6.972;2023-07-20T04:43:13;100770.72;;;20.06;62.31
54194;BME280;40102;50.906;6.972;2023-07-20T04:45:38;100772.28;;;20.09;62.74
54194;BME280;40102;50.906;6.972;2023-07-20T04:48:09;100772.13;;;20.10;62.78
54194;BME280;40102;50.906;6.972;2023-07-20T04:50:35;100774.00;;;20.10;62.37
54194;BME280;40102;50.906;6.972;2023-07-20T04:53:00;100772.00;;;20.02;62.96
54194;BME280;40102;50.906;6.972;2023-07-20T04:55:27;100774.28;;;19.97;63.29
54194;BME280;40102;50.906;6.972;2023-07-20T04:57:53;100770.00;;;19.94;63.32
54194;BME280;40102;50.906;6.972;2023-07-20T05:00:18;100766.44;;;19.94;63.22
54194;BME280;40102;50.906;6.972;2023-07-20T05:02:44;100771.88;;;19.84;63.88
54194;BME280;40102;50.906;6.972;2023-07-20T05:05:10;100774.72;;;19.73;64.12
54194;BME280;40102;50.906;6.972;2023-07-20T05:07:35;100767.44;;;19.64;64.87
54194;BME280;40102;50.906;6.972;2023-07-20T05:10:01;100769.72;;;19.59;65.38
54194;BME280;40102;50.906;6.972;2023-07-20T05:12:26;100766.88;;;19.60;65.00
54194;BME280;40102;50.906;6.972;2023-07-20T05:14:51;100765.03;;;19.70;64.23
54194;BME280;40102;50.906;6.972;2023-07-20T05:17:17;100767.31;;;19.75;64.19
54194;BME280;40102;50.906;6.972;2023-07-20T05:19:42;100774.16;;;19.79;63.67
54194;BME280;40102;50.906;6.972;2023-07-20T05:22:07;100776.72;;;19.71;64.74
54194;BME280;40102;50.906;6.972;2023-07-20T05:24:33;100769.88;;;19.67;64.73
54194;BME280;40102;50.906;6.972;2023-07-20T05:27:00;100758.88;;;19.59;65.09
54194;BME280;40102;50.906;6.972;2023-07-20T05:29:26;100769.84;;;19.48;65.36
54194;BME280;40102;50.906;6.972;2023-07-20T05:31:51;100783.56;;;19.56;65.33
54194;BME280;40102;50.906;6.972;2023-07-20T05:34:16;100766.53;;;19.44;65.46
54194;BME280;40102;50.906;6.972;2023-07-20T05:36:42;100778.16;;;19.56;65.41
54194;BME280;40102;50.906;6.972;2023-07-20T05:39:08;100776.44;;;19.55;65.77
54194;BME280;40102;50.906;6.972;2023-07-20T05:41:34;100775.16;;;19.59;65.45
54194;BME280;40102;50.906;6.972;2023-07-20T05:44:01;100768.72;;;19.60;65.42
54194;BME280;40102;50.906;6.972;2023-07-20T05:46:26;100776.59;;;19.63;65.43
54194;BME280;40102;50.906;6.972;2023-07-20T05:48:51;100773.44;;;19.67;65.07
54194;BME280;40102;50.906;6.972;2023-07-20T05:51:17;100770.88;;;19.66;65.15
54194;BME280;40102;50.906;6.972;2023-07-20T05:53:42;100779.03;;;19.76;64.86
54194;BME280;40102;50.906;6.972;2023-07-20T05:56:07;100784.72;;;19.82;64.46
54194;BME280;40102;50.906;6.972;2023-07-20T05:58:36;100761.72;;;19.77;64.06
54194;BME280;40102;50.906;6.972;2023-07-20T06:01:03;100779.72;;;19.78;64.66
54194;BME280;40102;50.906;6.972;2023-07-20T06:03:30;100772.16;;;19.71;64.69
54194;BME280;40102;50.906;6.972;2023-07-20T06:06:00;100773.16;;;19.70;64.71
54194;BME280;40102;50.906;6.972;2023-07-20T06:08:31;100777.59;;;19.71;64.28
54194;BME280;40102;50.906;6.972;2023-07-20T06:10:57;100794.44;;;19.85;64.83
54194;BME280;40102;50.906;6.972;2023-07-20T06:13:22;100792.72;;;19.84;64.75
54194;BME280;40102;50.906;6.972;2023-07-20T06:15:48;100791.72;;;19.85;64.13
54194;BME280;40102;50.906;6.972;2023-07-20T06:18:14;100796.59;;;19.91;64.05
54194;BME280;40102;50.906;6.972;2023-07-20T06:20:39;100792.59;;;19.95;63.96
54194;BME280;40102;50.906;6.972;2023-07-20T06:23:05;100800.44;;;19.98;63.57
54194;BME280;40102;50.906;6.972;2023-07-20T06:25:30;100794.28;;;19.96;63.88
54194;BME280;40102;50.906;6.972;2023-07-20T06:27:56;100797.44;;;19.91;63.85
54194;BME280;40102;50.906;6.972;2023-07-20T06:30:21;100800.16;;;19.82;64.54
54194;BME280;40102;50.906;6.972;2023-07-20T06:32:47;100804.59;;;19.73;64.76
54194;BME280;40102;50.906;6.972;2023-07-20T06:35:13;100807.44;;;19.71;64.80
54194;BME280;40102;50.906;6.972;2023-07-20T06:37:38;100800.72;;;19.76;64.37
54194;BME280;40102;50.906;6.972;2023-07-20T06:40:04;100799.31;;;19.81;64.49
54194;BME280;40102;50.906;6.972;2023-07-20T06:42:30;100801.44;;;19.78;64.25
54194;BME280;40102;50.906;6.972;2023-07-20T06:44:56;100808.00;;;19.85;63.93
54194;BME280;40102;50.906;6.972;2023-07-20T06:47:21;100804.31;;;19.86;63.61
54194;BME280;40102;50.906;6.972;2023-07-20T06:49:47;100811.88;;;19.92;63.21
54194;BME280;40102;50.906;6.972;2023-07-20T06:52:12;100804.44;;;19.94;63.28
54194;BME280;40102;50.906;6.972;2023-07-20T06:54:38;100805.59;;;19.91;63.50
54194;BME280;40102;50.906;6.972;2023-07-20T06:57:04;100809.31;;;19.90;63.49
54194;BME280;40102;50.906;6.972;2023-07-20T06:59:30;100812.16;;;19.89;63.54
54194;BME280;40102;50.906;6.972;2023-07-20T07:01:55;100810.59;;;19.86;63.04
54194;BME280;40102;50.906;6.972;2023-07-20T07:04:21;100813.72;;;19.91;63.02
54194;BME280;40102;50.906;6.972;2023-07-20T07:06:46;100820.00;;;19.92;63.35
54194;BME280;40102;50.906;6.972;2023-07-20T07:09:11;100816.00;;;19.86;63.54
54194;BME280;40102;50.906;6.972;2023-07-20T07:11:37;100806.31;;;19.84;63.68
54194;BME280;40102;50.906;6.972;2023-07-20T07:14:02;100813.00;;;19.80;63.54
54194;BME280;40102;50.906;6.972;2023-07-20T07:16:27;100830.28;;;19.79;63.63
54194;BME280;40102;50.906;6.972;2023-07-20T07:18:53;100822.16;;;19.69;64.15
54194;BME280;40102;50.906;6.972;2023-07-20T07:21:18;100827.72;;;19.67;64.48
54194;BME280;40102;50.906;6.972;2023-07-20T07:23:45;100830.16;;;19.70;64.49
54194;BME280;40102;50.906;6.972;2023-07-20T07:26:11;100816.16;;;19.75;64.24
54194;BME280;40102;50.906;6.972;2023-07-20T07:28:37;100817.00;;;19.76;63.72
54194;BME280;40102;50.906;6.972;2023-07-20T07:31:05;100822.00;;;19.80;63.41
54194;BME280;40102;50.906;6.972;2023-07-20T07:33:31;100822.44;;;19.85;63.17
54194;BME280;40102;50.906;6.972;2023-07-20T07:35:57;100834.59;;;19.91;62.50
54194;BME280;40102;50.906;6.972;2023-07-20T07:38:23;100827.16;;;19.93;62.54
54194;BME280;40102;50.906;6.972;2023-07-20T07:40:48;100824.16;;;19.96;62.53
54194;BME280;40102;50.906;6.972;2023-07-20T07:43:13;100822.88;;;20.00;62.00
54194;BME280;40102;50.906;6.972;2023-07-20T07:45:39;100823.28;;;20.05;62.00
54194;BME280;40102;50.906;6.972;2023-07-20T07:48:05;100817.56;;;20.08;61.46
54194;BME280;40102;50.906;6.972;2023-07-20T07:50:31;100828.44;;;20.18;62.06
54194;BME280;40102;50.906;6.972;2023-07-20T07:52:56;100825.84;;;20.16;61.79
54194;BME280;40102;50.906;6.972;2023-07-20T07:55:22;100835.56;;;20.19;61.28
54194;BME280;40102;50.906;6.972;2023-07-20T07:57:47;100835.72;;;20.17;61.41
54194;BME280;40102;50.906;6.972;2023-07-20T08:00:13;100826.72;;;20.17;61.48
54194;BME280;40102;50.906;6.972;2023-07-20T08:02:41;100838.28;;;20.19;61.33
54194;BME280;40102;50.906;6.972;2023-07-20T08:05:07;100836.16;;;20.22;60.62
54194;BME280;40102;50.906;6.972;2023-07-20T08:07:32;100827.56;;;20.27;60.85
54194;BME280;40102;50.906;6.972;2023-07-20T08:09:57;100831.13;;;20.37;60.27
54194;BME280;40102;50.906;6.972;2023-07-20T08:12:23;100826.00;;;20.44;60.29
54194;BME280;40102;50.906;6.972;2023-07-20T08:14:48;100831.69;;;20.50;59.56
54194;BME280;40102;50.906;6.972;2023-07-20T08:17:14;100834.41;;;20.50;59.42
54194;BME280;40102;50.906;6.972;2023-07-20T08:19:39;100832.13;;;20.46;58.80
54194;BME280;40102;50.906;6.972;2023-07-20T08:22:06;100834.13;;;20.44;59.09
54194;BME280;40102;50.906;6.972;2023-07-20T08:24:32;100837.16;;;20.41;59.09
54194;BME280;40102;50.906;6.972;2023-07-20T08:26:57;100831.97;;;20.37;58.77
54194;BME280;40102;50.906;6.972;2023-07-20T08:29:23;100841.44;;;20.43;58.91
54194;BME280;40102;50.906;6.972;2023-07-20T08:31:49;100833.28;;;20.43;58.68
54194;BME280;40102;50.906;6.972;2023-07-20T08:34:14;100838.00;;;20.51;58.82
54194;BME280;40102;50.906;6.972;2023-07-20T08:36:40;100847.56;;;20.55;58.69
54194;BME280;40102;50.906;6.972;2023-07-20T08:39:05;100843.84;;;20.56;58.29
54194;BME280;40102;50.906;6.972;2023-07-20T08:41:30;100840.56;;;20.52;58.13
54194;BME280;40102;50.906;6.972;2023-07-20T08:43:56;100842.56;;;20.50;58.01
54194;BME280;40102;50.906;6.972;2023-07-20T08:46:23;100849.28;;;20.46;58.05
54194;BME280;40102;50.906;6.972;2023-07-20T08:48:50;100843.72;;;20.48;57.19
54194;BME280;40102;50.906;6.972;2023-07-20T08:51:17;100849.72;;;20.51;56.05
54194;BME280;40102;50.906;6.972;2023-07-20T08:53:45;100851.00;;;20.47;56.70
54194;BME280;40102;50.906;6.972;2023-07-20T08:56:11;100852.72;;;20.48;56.74
54194;BME280;40102;50.906;6.972;2023-07-20T08:58:39;100854.84;;;20.54;56.79
54194;BME280;40102;50.906;6.972;2023-07-20T09:01:07;100839.69;;;20.52;56.28
54194;BME280;40102;50.906;6.972;2023-07-20T09:03:33;100842.84;;;20.57;55.81
54194;BME280;40102;50.906;6.972;2023-07-20T09:05:59;100835.09;;;20.62;56.32
54194;BME280;40102;50.906;6.972;2023-07-20T09:08:24;100825.50;;;20.67;55.94
54194;BME280;40102;50.906;6.972;2023-07-20T09:10:49;100829.34;;;20.75;55.78
54194;BME280;40102;50.906;6.972;2023-07-20T09:13:15;100832.91;;;20.75;55.04
54194;BME280;40102;50.906;6.972;2023-07-20T09:15:46;100840.06;;;20.76;55.32
54194;BME280;40102;50.906;6.972;2023-07-20T09:18:12;100839.78;;;20.79;54.80
54194;BME280;40102;50.906;6.972;2023-07-20T09:20:37;100824.75;;;20.75;55.07
54194;BME280;40102;50.906;6.972;2023-07-20T09:23:06;100833.78;;;20.76;55.36
54194;BME280;40102;50.906;6.972;2023-07-20T09:25:32;100827.63;;;20.74;55.29
54194;BME280;40102;50.906;6.972;2023-07-20T09:28:02;100836.63;;;20.74;54.56
54194;BME280;40102;50.906;6.972;2023-07-20T09:30:28;100833.22;;;20.72;53.24
54194;BME280;40102;50.906;6.972;2023-07-20T09:32:54;100829.06;;;20.68;53.59
54194;BME280;40102;50.906;6.972;2023-07-20T09:35:21;100826.22;;;20.69;52.75
54194;BME280;40102;50.906;6.972;2023-07-20T09:37:59;100830.91;;;20.77;52.85
54194;BME280;40102;50.906;6.972;2023-07-20T09:40:28;100826.25;;;20.87;53.19
54194;BME280;40102;50.906;6.972;2023-07-20T09:42:55;100824.25;;;20.89;52.10
54194;BME280;40102;50.906;6.972;2023-07-20T09:45:49;100823.94;;;20.92;51.33
54194;BME280;40102;50.906;6.972;2023-07-20T09:48:14;100823.94;;;20.92;51.95
54194;BME280;40102;50.906;6.972;2023-07-20T09:50:48;100826.66;;;20.92;52.36
54194;BME280;40102;50.906;6.972;2023-07-20T09:53:15;100822.53;;;20.88;52.69
54194;BME280;40102;50.906;6.972;2023-07-20T09:55:44;100828.81;;;20.89;52.78
54194;BME280;40102;50.906;6.972;2023-07-20T09:58:09;100818.41;;;20.84;52.75
54194;BME280;40102;50.906;6.972;2023-07-20T10:00:37;100822.69;;;20.87;52.52
54194;BME280;40102;50.906;6.972;2023-07-20T10:03:04;100822.13;;;20.83;52.81
54194;BME280;40102;50.906;6.972;2023-07-20T10:05:32;100818.25;;;20.86;52.79
54194;BME280;40102;50.906;6.972;2023-07-20T10:08:01;100832.56;;;20.88;52.63
54194;BME280;40102;50.906;6.972;2023-07-20T10:10:27;100826.66;;;20.92;52.47
54194;BME280;40102;50.906;6.972;2023-07-20T10:12:52;100816.50;;;20.94;52.72
54194;BME280;40102;50.906;6.972;2023-07-20T10:15:24;100831.66;;;20.97;52.38
54194;BME280;40102;50.906;6.972;2023-07-20T10:18:09;100816.59;;;21.02;52.68
54194;BME280;40102;50.906;6.972;2023-07-20T10:20:39;100810.88;;;21.06;52.37
54194;BME280;40102;50.906;6.972;2023-07-20T10:23:04;100806.13;;;21.08;52.37
54194;BME280;40102;50.906;6.972;2023-07-20T10:25:31;100809.00;;;21.06;51.99
54194;BME280;40102;50.906;6.972;2023-07-20T10:27:59;100790.41;;;21.01;52.22
54194;BME280;40102;50.906;6.972;2023-07-20T10:30:25;100806.94;;;21.18;52.00
54194;BME280;40102;50.906;6.972;2023-07-20T10:32:52;100793.34;;;21.18;51.00
54194;BME280;40102;50.906;6.972;2023-07-20T10:35:18;100792.16;;;21.30;50.71
54194;BME280;40102;50.906;6.972;2023-07-20T10:40:37;100792.94;;;21.40;49.84
54194;BME280;40102;50.906;6.972;2023-07-20T10:43:04;100800.81;;;21.43;48.90
54194;BME280;40102;50.906;6.972;2023-07-20T10:45:51;100798.78;;;21.45;48.04
54194;BME280;40102;50.906;6.972;2023-07-20T10:51:08;100783.78;;;21.41;48.66
54194;BME280;40102;50.906;6.972;2023-07-20T10:53:32;100781.06;;;21.41;48.94
54194;BME280;40102;50.906;6.972;2023-07-20T10:56:08;100780.75;;;21.44;48.79
54194;BME280;40102;50.906;6.972;2023-07-20T10:58:36;100776.47;;;21.42;49.43
54194;BME280;40102;50.906;6.972;2023-07-20T11:01:03;100774.75;;;21.41;49.52
54194;BME280;40102;50.906;6.972;2023-07-20T11:03:38;100775.75;;;21.40;49.01
54194;BME280;40102;50.906;6.972;2023-07-20T11:08:54;100784.47;;;21.43;48.50
54194;BME280;40102;50.906;6.972;2023-07-20T11:11:21;100780.03;;;21.42;47.93
54194;BME280;40102;50.906;6.972;2023-07-20T11:14:04;100783.63;;;21.43;48.07
54194;BME280;40102;50.906;6.972;2023-07-20T11:16:42;100790.94;;;21.42;48.75
54194;BME280;40102;50.906;6.972;2023-07-20T11:19:25;100784.94;;;21.39;48.26
54194;BME280;40102;50.906;6.972;2023-07-20T11:21:54;100781.34;;;21.38;47.86
54194;BME280;40102;50.906;6.972;2023-07-20T11:24:21;100784.22;;;21.37;47.78
54194;BME280;40102;50.906;6.972;2023-07-20T11:26:51;100780.81;;;21.34;48.37
54194;BME280;40102;50.906;6.972;2023-07-20T11:29:18;100780.97;;;21.33;48.92
54194;BME280;40102;50.906;6.972;2023-07-20T11:31:46;100775.53;;;21.33;48.46
54194;BME280;40102;50.906;6.972;2023-07-20T11:34:13;100777.22;;;21.34;47.99
54194;BME280;40102;50.906;6.972;2023-07-20T11:36:43;100781.66;;;21.35;47.78
54194;BME280;40102;50.906;6.972;2023-07-20T11:39:10;100774.06;;;21.39;47.30
54194;BME280;40102;50.906;6.972;2023-07-20T11:41:35;100782.06;;;21.40;47.08
54194;BME280;40102;50.906;6.972;2023-07-20T11:44:01;100780.19;;;21.41;47.20
54194;BME280;40102;50.906;6.972;2023-07-20T11:46:28;100780.91;;;21.43;46.65
54194;BME280;40102;50.906;6.972;2023-07-20T11:49:00;100785.88;;;21.47;46.32
54194;BME280;40102;50.906;6.972;2023-07-20T11:51:29;100776.09;;;21.54;46.28
54194;BME280;40102;50.906;6.972;2023-07-20T11:53:56;100778.81;;;21.54;46.51
54194;BME280;40102;50.906;6.972;2023-07-20T11:56:25;100772.03;;;21.58;46.03
54194;BME280;40102;50.906;6.972;2023-07-20T11:58:54;100768.88;;;21.63;45.71
54194;BME280;40102;50.906;6.972;2023-07-20T12:01:20;100769.56;;;21.65;46.00
54194;BME280;40102;50.906;6.972;2023-07-20T12:03:45;100765.50;;;21.69;45.91
54194;BME280;40102;50.906;6.972;2023-07-20T12:06:13;100765.75;;;21.76;46.89
54194;BME280;40102;50.906;6.972;2023-07-20T12:08:39;100764.66;;;21.86;47.02
54194;BME280;40102;50.906;6.972;2023-07-20T12:11:06;100759.66;;;21.99;46.68
54194;BME280;40102;50.906;6.972;2023-07-20T12:13:40;100764.41;;;22.15;46.20
54194;BME280;40102;50.906;6.972;2023-07-20T12:16:09;100756.78;;;22.19;46.37
54194;BME280;40102;50.906;6.972;2023-07-20T12:18:35;100758.47;;;22.20;45.60
54194;BME280;40102;50.906;6.972;2023-07-20T12:21:01;100765.97;;;22.18;45.91
54194;BME280;40102;50.906;6.972;2023-07-20T12:23:38;100764.19;;;22.09;46.07
54194;BME280;40102;50.906;6.972;2023-07-20T12:26:06;100760.66;;;21.98;45.62
54194;BME280;40102;50.906;6.972;2023-07-20T12:28:32;100753.81;;;21.94;45.43
54194;BME280;40102;50.906;6.972;2023-07-20T12:30:57;100754.84;;;21.93;45.96
54194;BME280;40102;50.906;6.972;2023-07-20T12:33:22;100750.34;;;21.84;46.01
54194;BME280;40102;50.906;6.972;2023-07-20T12:35:48;100755.94;;;21.83;45.93
54194;BME280;40102;50.906;6.972;2023-07-20T12:38:14;100763.56;;;21.79;45.58
54194;BME280;40102;50.906;6.972;2023-07-20T12:40:41;100766.28;;;21.79;46.02
54194;BME280;40102;50.906;6.972;2023-07-20T12:43:06;100754.00;;;21.75;45.88
54194;BME280;40102;50.906;6.972;2023-07-20T12:45:32;100758.22;;;21.70;46.23
54194;BME280;40102;50.906;6.972;2023-07-20T12:47:57;100759.91;;;21.71;46.15
54194;BME280;40102;50.906;6.972;2023-07-20T12:50:23;100766.38;;;21.70;46.06
54194;BME280;40102;50.906;6.972;2023-07-20T12:52:48;100761.25;;;21.66;46.14
54194;BME280;40102;50.906;6.972;2023-07-20T12:55:14;100748.09;;;21.62;46.21
54194;BME280;40102;50.906;6.972;2023-07-20T12:57:40;100753.06;;;21.66;46.09
54194;BME280;40102;50.906;6.972;2023-07-20T13:00:08;100750.03;;;21.70;46.38
54194;BME280;40102;50.906;6.972;2023-07-20T13:02:35;100748.50;;;21.67;46.39
54194;BME280;40102;50.906;6.972;2023-07-20T13:05:01;100752.59;;;21.71;46.44